Waasis, Canada
Current Conditions -  °F | °C
As of 8:00 PM on Saturday 22 Nov 2014 (Local Time) from CYFC Reporting Station
Overcast Overcast  
Wind Chill: 26°   Ceiling: 4400
Heat Index: 34°   Visibility: 9mi
Dew Point: 19°   Wind: 10mph
Humidity: 56%   Direction: 230°SW
Pressure: 29.87"   Gusts: NA
Location:  45.83°N, 66.58°W
Report Text: CYFC 230000Z AUTO 23009KT 9SM BKN044 OVC100 01/M07 A2987 RMK SLP116
Loading
Personal Weather Stations






























Interactive Weather Map New forecast layout! Learn more

10-Day Weather Forecast

Advertisements
Track Severe Weather on mobile